sensor_id;sensor_type;location;lat;lon;timestamp;pressure;altitude;pressure_sealevel;temperature;humidity
9746;BME280;4912;50.836;12.958;2023-01-25T00:00:33;99703.63;;;2.64;88.69
9746;BME280;4912;50.836;12.958;2023-01-25T00:03:04;99694.31;;;2.69;88.81
9746;BME280;4912;50.836;12.958;2023-01-25T00:05:37;99695.13;;;2.69;88.51
9746;BME280;4912;50.836;12.958;2023-01-25T00:08:07;99698.16;;;2.64;88.92
9746;BME280;4912;50.836;12.958;2023-01-25T00:10:37;99702.06;;;2.63;88.84
9746;BME280;4912;50.836;12.958;2023-01-25T00:13:07;99694.66;;;2.64;88.61
9746;BME280;4912;50.836;12.958;2023-01-25T00:15:38;99692.69;;;2.64;88.90
9746;BME280;4912;50.836;12.958;2023-01-25T00:18:08;99692.63;;;2.61;89.04
9746;BME280;4912;50.836;12.958;2023-01-25T00:20:41;99682.59;;;2.68;89.37
9746;BME280;4912;50.836;12.958;2023-01-25T00:23:11;99686.59;;;2.74;89.21
9746;BME280;4912;50.836;12.958;2023-01-25T00:25:42;99671.03;;;2.78;89.19
9746;BME280;4912;50.836;12.958;2023-01-25T00:28:12;99677.34;;;2.82;89.00
9746;BME280;4912;50.836;12.958;2023-01-25T00:34:44;99682.47;;;2.87;88.84
9746;BME280;4912;50.836;12.958;2023-01-25T00:37:23;99691.47;;;2.88;88.74
9746;BME280;4912;50.836;12.958;2023-01-25T00:39:57;99684.06;;;2.88;88.70
9746;BME280;4912;50.836;12.958;2023-01-25T00:42:27;99685.25;;;2.91;88.98
9746;BME280;4912;50.836;12.958;2023-01-25T00:44:57;99684.91;;;2.96;89.12
9746;BME280;4912;50.836;12.958;2023-01-25T00:47:27;99682.25;;;3.00;88.86
9746;BME280;4912;50.836;12.958;2023-01-25T00:49:57;99681.50;;;3.03;88.38
9746;BME280;4912;50.836;12.958;2023-01-25T00:59:32;99681.47;;;2.99;88.42
9746;BME280;4912;50.836;12.958;2023-01-25T01:02:03;99677.56;;;3.00;88.73
9746;BME280;4912;50.836;12.958;2023-01-25T01:04:34;99683.06;;;3.04;88.89
9746;BME280;4912;50.836;12.958;2023-01-25T01:07:04;99683.09;;;3.07;88.56
9746;BME280;4912;50.836;12.958;2023-01-25T01:09:34;99680.81;;;3.09;88.49
9746;BME280;4912;50.836;12.958;2023-01-25T01:19:39;99682.31;;;3.07;89.07
9746;BME280;4912;50.836;12.958;2023-01-25T01:22:10;99678.06;;;3.09;89.19
9746;BME280;4912;50.836;12.958;2023-01-25T01:24:40;99673.81;;;3.12;88.93
9746;BME280;4912;50.836;12.958;2023-01-25T01:27:10;99673.28;;;3.03;88.08
9746;BME280;4912;50.836;12.958;2023-01-25T01:29:41;99658.50;;;3.07;88.25
9746;BME280;4912;50.836;12.958;2023-01-25T01:32:11;99657.41;;;3.12;88.36
9746;BME280;4912;50.836;12.958;2023-01-25T01:34:44;99658.16;;;3.12;88.50
9746;BME280;4912;50.836;12.958;2023-01-25T01:37:15;99646.47;;;3.12;88.67
9746;BME280;4912;50.836;12.958;2023-01-25T01:39:45;99651.16;;;3.15;88.46
9746;BME280;4912;50.836;12.958;2023-01-25T01:42:15;99641.03;;;3.15;88.63
9746;BME280;4912;50.836;12.958;2023-01-25T01:44:47;99646.13;;;3.17;88.79
9746;BME280;4912;50.836;12.958;2023-01-25T01:47:23;99644.97;;;3.18;88.64
9746;BME280;4912;50.836;12.958;2023-01-25T01:50:11;99643.41;;;3.20;88.14
9746;BME280;4912;50.836;12.958;2023-01-25T01:52:49;99651.59;;;3.17;88.13
9746;BME280;4912;50.836;12.958;2023-01-25T01:55:20;99644.19;;;3.17;88.16
9746;BME280;4912;50.836;12.958;2023-01-25T01:57:55;99639.44;;;3.14;88.22
9746;BME280;4912;50.836;12.958;2023-01-25T02:00:31;99633.59;;;3.16;88.08
9746;BME280;4912;50.836;12.958;2023-01-25T02:03:03;99632.41;;;3.13;88.17
9746;BME280;4912;50.836;12.958;2023-01-25T02:05:43;99629.28;;;3.15;88.38
9746;BME280;4912;50.836;12.958;2023-01-25T02:08:17;99619.97;;;3.19;88.64
9746;BME280;4912;50.836;12.958;2023-01-25T02:10:49;99614.88;;;3.18;88.28
9746;BME280;4912;50.836;12.958;2023-01-25T02:13:20;99619.16;;;3.19;88.51
9746;BME280;4912;50.836;12.958;2023-01-25T02:15:56;99606.69;;;3.18;88.61
9746;BME280;4912;50.836;12.958;2023-01-25T02:18:28;99611.75;;;3.19;88.57
9746;BME280;4912;50.836;12.958;2023-01-25T02:21:01;99608.66;;;3.21;88.68
9746;BME280;4912;50.836;12.958;2023-01-25T02:23:36;99600.88;;;3.23;88.54
9746;BME280;4912;50.836;12.958;2023-01-25T02:26:13;99597.28;;;3.19;88.51
9746;BME280;4912;50.836;12.958;2023-01-25T02:28:47;99595.75;;;3.21;88.15
9746;BME280;4912;50.836;12.958;2023-01-25T02:31:23;99584.81;;;3.21;88.43
9746;BME280;4912;50.836;12.958;2023-01-25T02:33:54;99591.09;;;3.22;88.61
9746;BME280;4912;50.836;12.958;2023-01-25T02:36:26;99587.97;;;3.23;88.67
9746;BME280;4912;50.836;12.958;2023-01-25T02:39:01;99588.34;;;3.22;88.71
9746;BME280;4912;50.836;12.958;2023-01-25T02:41:36;99589.53;;;3.24;89.01
9746;BME280;4912;50.836;12.958;2023-01-25T02:44:10;99586.41;;;3.22;89.07
9746;BME280;4912;50.836;12.958;2023-01-25T02:46:43;99585.63;;;3.25;88.72
9746;BME280;4912;50.836;12.958;2023-01-25T02:49:14;99574.69;;;3.25;88.38
9746;BME280;4912;50.836;12.958;2023-01-25T02:51:49;99570.00;;;3.26;88.70
9746;BME280;4912;50.836;12.958;2023-01-25T02:54:23;99571.16;;;3.25;88.67
9746;BME280;4912;50.836;12.958;2023-01-25T02:56:57;99570.00;;;3.26;88.73
9746;BME280;4912;50.836;12.958;2023-01-25T02:59:36;99570.44;;;3.28;88.61
9746;BME280;4912;50.836;12.958;2023-01-25T03:02:06;99561.81;;;3.26;88.32
9746;BME280;4912;50.836;12.958;2023-01-25T03:04:37;99564.16;;;3.24;88.56
9746;BME280;4912;50.836;12.958;2023-01-25T03:07:07;99550.47;;;3.24;88.82
9746;BME280;4912;50.836;12.958;2023-01-25T03:09:38;99553.59;;;3.26;88.73
9746;BME280;4912;50.836;12.958;2023-01-25T03:12:11;99545.38;;;3.22;88.64
9746;BME280;4912;50.836;12.958;2023-01-25T03:14:43;99545.38;;;3.22;87.86
9746;BME280;4912;50.836;12.958;2023-01-25T03:17:14;99541.09;;;3.25;87.52
9746;BME280;4912;50.836;12.958;2023-01-25T03:19:45;99543.38;;;3.19;87.71
9746;BME280;4912;50.836;12.958;2023-01-25T03:22:15;99542.63;;;3.22;87.97
9746;BME280;4912;50.836;12.958;2023-01-25T03:24:46;99538.75;;;3.23;88.02
9746;BME280;4912;50.836;12.958;2023-01-25T03:27:19;99530.94;;;3.25;87.68
9746;BME280;4912;50.836;12.958;2023-01-25T03:29:53;99530.97;;;3.29;87.62
9746;BME280;4912;50.836;12.958;2023-01-25T03:32:27;99526.63;;;3.24;88.35
9746;BME280;4912;50.836;12.958;2023-01-25T03:35:04;99535.59;;;3.25;88.96
9746;BME280;4912;50.836;12.958;2023-01-25T03:37:35;99534.44;;;3.26;89.01
9746;BME280;4912;50.836;12.958;2023-01-25T03:40:07;99529.41;;;3.28;89.31
9746;BME280;4912;50.836;12.958;2023-01-25T03:42:45;99524.75;;;3.32;89.30
9746;BME280;4912;50.836;12.958;2023-01-25T03:45:16;99523.16;;;3.31;89.42
9746;BME280;4912;50.836;12.958;2023-01-25T03:47:48;99516.53;;;3.32;89.69
9746;BME280;4912;50.836;12.958;2023-01-25T03:50:19;99515.38;;;3.33;89.49
9746;BME280;4912;50.836;12.958;2023-01-25T03:52:49;99516.91;;;3.30;89.25
9746;BME280;4912;50.836;12.958;2023-01-25T03:55:27;99512.22;;;3.31;89.44
9746;BME280;4912;50.836;12.958;2023-01-25T03:58:01;99517.69;;;3.31;89.61
9746;BME280;4912;50.836;12.958;2023-01-25T04:00:33;99522.38;;;3.30;89.66
9746;BME280;4912;50.836;12.958;2023-01-25T04:03:03;99513.38;;;3.30;89.16
9746;BME280;4912;50.836;12.958;2023-01-25T04:05:34;99512.19;;;3.27;89.03
9746;BME280;4912;50.836;12.958;2023-01-25T04:08:04;99503.56;;;3.22;89.08
9746;BME280;4912;50.836;12.958;2023-01-25T04:10:38;99501.25;;;3.24;89.28
9746;BME280;4912;50.836;12.958;2023-01-25T04:13:11;99494.97;;;3.23;89.69
9746;BME280;4912;50.836;12.958;2023-01-25T04:15:41;99493.03;;;3.24;89.69
9746;BME280;4912;50.836;12.958;2023-01-25T04:18:22;99500.44;;;3.23;89.28
9746;BME280;4912;50.836;12.958;2023-01-25T04:20:53;99506.31;;;3.25;89.76
9746;BME280;4912;50.836;12.958;2023-01-25T04:23:25;99509.47;;;3.31;89.98
9746;BME280;4912;50.836;12.958;2023-01-25T04:25:57;99504.00;;;3.31;89.59
9746;BME280;4912;50.836;12.958;2023-01-25T04:28:33;99503.66;;;3.33;89.80
9746;BME280;4912;50.836;12.958;2023-01-25T04:31:04;99502.13;;;3.35;89.83
9746;BME280;4912;50.836;12.958;2023-01-25T04:33:39;99503.28;;;3.34;89.70
9746;BME280;4912;50.836;12.958;2023-01-25T04:36:11;99506.41;;;3.36;89.78
9746;BME280;4912;50.836;12.958;2023-01-25T04:38:42;99503.28;;;3.34;89.20
9746;BME280;4912;50.836;12.958;2023-01-25T04:41:12;99509.56;;;3.38;88.91
9746;BME280;4912;50.836;12.958;2023-01-25T04:43:46;99507.22;;;3.40;88.79
9746;BME280;4912;50.836;12.958;2023-01-25T04:46:16;99516.22;;;3.41;88.90
9746;BME280;4912;50.836;12.958;2023-01-25T04:48:47;99509.56;;;3.42;89.44
9746;BME280;4912;50.836;12.958;2023-01-25T04:51:17;99509.97;;;3.40;89.42
9746;BME280;4912;50.836;12.958;2023-01-25T04:53:48;99506.06;;;3.41;89.18
9746;BME280;4912;50.836;12.958;2023-01-25T04:56:18;99505.25;;;3.37;89.62
9746;BME280;4912;50.836;12.958;2023-01-25T04:58:56;99507.97;;;3.37;89.55
9746;BME280;4912;50.836;12.958;2023-01-25T05:01:27;99506.03;;;3.38;89.62
9746;BME280;4912;50.836;12.958;2023-01-25T05:04:02;99497.81;;;3.38;89.57
9746;BME280;4912;50.836;12.958;2023-01-25T05:06:38;99497.44;;;3.39;89.85
9746;BME280;4912;50.836;12.958;2023-01-25T05:09:09;99498.25;;;3.40;89.81
9746;BME280;4912;50.836;12.958;2023-01-25T05:11:40;99499.84;;;3.44;89.50
9746;BME280;4912;50.836;12.958;2023-01-25T05:14:20;99491.63;;;3.44;88.95
9746;BME280;4912;50.836;12.958;2023-01-25T05:16:51;99498.31;;;3.47;88.64
9746;BME280;4912;50.836;12.958;2023-01-25T05:19:21;99494.72;;;3.43;88.44
9746;BME280;4912;50.836;12.958;2023-01-25T05:22:02;99498.25;;;3.40;88.73
9746;BME280;4912;50.836;12.958;2023-01-25T05:24:42;99491.16;;;3.35;88.97
9746;BME280;4912;50.836;12.958;2023-01-25T05:27:16;99494.69;;;3.36;89.00
9746;BME280;4912;50.836;12.958;2023-01-25T05:30:08;99482.97;;;3.35;89.16
9746;BME280;4912;50.836;12.958;2023-01-25T05:32:56;99489.97;;;3.36;89.54
9746;BME280;4912;50.836;12.958;2023-01-25T05:35:27;99477.88;;;3.37;89.34
9746;BME280;4912;50.836;12.958;2023-01-25T05:37:58;99476.31;;;3.36;89.45
9746;BME280;4912;50.836;12.958;2023-01-25T05:40:28;99479.03;;;3.36;89.90
9746;BME280;4912;50.836;12.958;2023-01-25T05:43:00;99477.50;;;3.39;89.77
9746;BME280;4912;50.836;12.958;2023-01-25T05:45:33;99472.41;;;3.37;89.21
9746;BME280;4912;50.836;12.958;2023-01-25T05:48:05;99473.56;;;3.36;89.06
9746;BME280;4912;50.836;12.958;2023-01-25T05:50:42;99472.81;;;3.36;89.11
9746;BME280;4912;50.836;12.958;2023-01-25T05:53:20;99470.81;;;3.33;89.09
9746;BME280;4912;50.836;12.958;2023-01-25T05:55:54;99469.25;;;3.32;89.39
9746;BME280;4912;50.836;12.958;2023-01-25T05:58:24;99469.59;;;3.30;89.74
9746;BME280;4912;50.836;12.958;2023-01-25T06:00:58;99468.06;;;3.29;89.76
9746;BME280;4912;50.836;12.958;2023-01-25T06:03:38;99471.59;;;3.29;90.00
9746;BME280;4912;50.836;12.958;2023-01-25T06:06:09;99469.25;;;3.32;90.22
9746;BME280;4912;50.836;12.958;2023-01-25T06:08:39;99471.97;;;3.32;90.58
9746;BME280;4912;50.836;12.958;2023-01-25T06:11:11;99471.97;;;3.28;90.58
9746;BME280;4912;50.836;12.958;2023-01-25T06:13:45;99473.13;;;3.30;90.64
9746;BME280;4912;50.836;12.958;2023-01-25T06:16:18;99470.44;;;3.34;90.14
9746;BME280;4912;50.836;12.958;2023-01-25T06:19:20;99473.19;;;3.34;90.50
9746;BME280;4912;50.836;12.958;2023-01-25T06:22:26;99474.34;;;3.33;90.83
9746;BME280;4912;50.836;12.958;2023-01-25T06:24:56;99471.59;;;3.33;91.00
9746;BME280;4912;50.836;12.958;2023-01-25T06:27:27;99470.03;;;3.32;90.91
9746;BME280;4912;50.836;12.958;2023-01-25T06:29:57;99469.28;;;3.35;90.91
9746;BME280;4912;50.836;12.958;2023-01-25T06:32:33;99466.56;;;3.35;90.83
9746;BME280;4912;50.836;12.958;2023-01-25T06:35:04;99467.34;;;3.36;90.66
9746;BME280;4912;50.836;12.958;2023-01-25T06:37:35;99468.09;;;3.36;90.62
9746;BME280;4912;50.836;12.958;2023-01-25T06:40:07;99470.84;;;3.36;90.49
9746;BME280;4912;50.836;12.958;2023-01-25T06:42:38;99464.59;;;3.36;90.17
9746;BME280;4912;50.836;12.958;2023-01-25T06:45:09;99468.50;;;3.35;90.37
9746;BME280;4912;50.836;12.958;2023-01-25T06:47:43;99460.28;;;3.35;90.57
9746;BME280;4912;50.836;12.958;2023-01-25T06:50:14;99461.06;;;3.35;90.55
9746;BME280;4912;50.836;12.958;2023-01-25T06:52:50;99457.94;;;3.33;90.92
9746;BME280;4912;50.836;12.958;2023-01-25T06:55:21;99466.50;;;3.32;90.88
9746;BME280;4912;50.836;12.958;2023-01-25T06:57:52;99459.09;;;3.32;90.76
9746;BME280;4912;50.836;12.958;2023-01-25T07:00:22;99453.63;;;3.32;90.96
9746;BME280;4912;50.836;12.958;2023-01-25T07:02:55;99453.97;;;3.30;90.90
9746;BME280;4912;50.836;12.958;2023-01-25T07:05:26;99453.97;;;3.30;90.93
9746;BME280;4912;50.836;12.958;2023-01-25T07:07:56;99452.44;;;3.29;91.23
9746;BME280;4912;50.836;12.958;2023-01-25T07:10:27;99448.91;;;3.29;91.70
9746;BME280;4912;50.836;12.958;2023-01-25T07:12:59;99450.88;;;3.28;91.60
9746;BME280;4912;50.836;12.958;2023-01-25T07:15:29;99452.03;;;3.31;91.44
9746;BME280;4912;50.836;12.958;2023-01-25T07:18:03;99441.50;;;3.33;91.41
9746;BME280;4912;50.836;12.958;2023-01-25T07:20:42;99443.47;;;3.36;91.54
9746;BME280;4912;50.836;12.958;2023-01-25T07:23:13;99446.22;;;3.36;91.43
9746;BME280;4912;50.836;12.958;2023-01-25T07:25:44;99437.25;;;3.36;91.43
9746;BME280;4912;50.836;12.958;2023-01-25T07:28:15;99435.69;;;3.38;91.63
9746;BME280;4912;50.836;12.958;2023-01-25T07:30:49;99434.53;;;3.39;91.56
9746;BME280;4912;50.836;12.958;2023-01-25T07:33:22;99429.84;;;3.40;91.40
9746;BME280;4912;50.836;12.958;2023-01-25T07:35:52;99432.97;;;3.42;91.58
9746;BME280;4912;50.836;12.958;2023-01-25T07:38:23;99427.16;;;3.47;91.28
9746;BME280;4912;50.836;12.958;2023-01-25T07:40:53;99428.34;;;3.49;91.00
9746;BME280;4912;50.836;12.958;2023-01-25T07:43:24;99432.63;;;3.50;90.86
9746;BME280;4912;50.836;12.958;2023-01-25T07:46:00;99433.84;;;3.53;90.90
9746;BME280;4912;50.836;12.958;2023-01-25T07:48:33;99424.06;;;3.52;90.68
9746;BME280;4912;50.836;12.958;2023-01-25T07:51:06;99422.50;;;3.54;90.86
9746;BME280;4912;50.836;12.958;2023-01-25T07:53:50;99420.16;;;3.56;90.79
9746;BME280;4912;50.836;12.958;2023-01-25T07:56:22;99417.44;;;3.56;90.36
9746;BME280;4912;50.836;12.958;2023-01-25T07:58:54;99412.75;;;3.57;89.98
9746;BME280;4912;50.836;12.958;2023-01-25T08:01:27;99417.44;;;3.60;89.78
9746;BME280;4912;50.836;12.958;2023-01-25T08:04:01;99406.91;;;3.62;89.50
9746;BME280;4912;50.836;12.958;2023-01-25T08:06:33;99410.06;;;3.64;89.35
9746;BME280;4912;50.836;12.958;2023-01-25T08:09:07;99401.44;;;3.58;88.97
9746;BME280;4912;50.836;12.958;2023-01-25T08:11:40;99410.06;;;3.64;88.63
9746;BME280;4912;50.836;12.958;2023-01-25T08:14:11;99405.75;;;3.66;88.49
9746;BME280;4912;50.836;12.958;2023-01-25T08:16:41;99389.75;;;3.65;88.64
9746;BME280;4912;50.836;12.958;2023-01-25T08:19:14;99391.28;;;3.66;88.77
9746;BME280;4912;50.836;12.958;2023-01-25T08:21:46;99391.34;;;3.73;88.37
9746;BME280;4912;50.836;12.958;2023-01-25T08:24:16;99386.22;;;3.71;88.23
9746;BME280;4912;50.836;12.958;2023-01-25T08:26:50;99377.25;;;3.75;87.59
9746;BME280;4912;50.836;12.958;2023-01-25T08:29:20;99380.00;;;3.75;87.97
9746;BME280;4912;50.836;12.958;2023-01-25T08:31:50;99373.78;;;3.81;88.15
9746;BME280;4912;50.836;12.958;2023-01-25T08:34:23;99377.31;;;3.85;87.80
9746;BME280;4912;50.836;12.958;2023-01-25T08:36:57;99370.28;;;3.88;86.90
9746;BME280;4912;50.836;12.958;2023-01-25T08:39:27;99370.31;;;3.91;85.97
9746;BME280;4912;50.836;12.958;2023-01-25T08:41:58;99362.09;;;3.91;85.27
9746;BME280;4912;50.836;12.958;2023-01-25T08:44:28;99367.19;;;3.93;84.62
9746;BME280;4912;50.836;12.958;2023-01-25T08:46:59;99355.44;;;3.96;85.08
9746;BME280;4912;50.836;12.958;2023-01-25T08:49:31;99353.91;;;4.02;84.48
9746;BME280;4912;50.836;12.958;2023-01-25T08:52:04;99349.25;;;4.09;83.94
9746;BME280;4912;50.836;12.958;2023-01-25T08:54:34;99346.91;;;4.15;83.60
9746;BME280;4912;50.836;12.958;2023-01-25T08:57:05;99353.97;;;4.23;83.14
9746;BME280;4912;50.836;12.958;2023-01-25T08:59:35;99351.25;;;4.27;82.42
9746;BME280;4912;50.836;12.958;2023-01-25T09:02:05;99354.38;;;4.29;82.60
9746;BME280;4912;50.836;12.958;2023-01-25T09:04:38;99357.91;;;4.29;82.29
9746;BME280;4912;50.836;12.958;2023-01-25T09:07:09;99359.47;;;4.34;82.65
9746;BME280;4912;50.836;12.958;2023-01-25T09:09:39;99346.94;;;4.36;82.52
9746;BME280;4912;50.836;12.958;2023-01-25T09:12:09;99351.66;;;4.29;81.43
9746;BME280;4912;50.836;12.958;2023-01-25T09:14:40;99350.84;;;4.21;81.21
9746;BME280;4912;50.836;12.958;2023-01-25T09:17:10;99341.84;;;4.17;82.28
9746;BME280;4912;50.836;12.958;2023-01-25T09:19:44;99339.13;;;4.28;82.44
9746;BME280;4912;50.836;12.958;2023-01-25T09:22:14;99340.69;;;4.32;82.10
9746;BME280;4912;50.836;12.958;2023-01-25T09:24:44;99338.75;;;4.43;81.63
9746;BME280;4912;50.836;12.958;2023-01-25T09:27:18;99336.03;;;4.47;81.51
9746;BME280;4912;50.836;12.958;2023-01-25T09:29:49;99346.19;;;4.46;80.75
9746;BME280;4912;50.836;12.958;2023-01-25T09:32:28;99332.84;;;4.17;79.08
9746;BME280;4912;50.836;12.958;2023-01-25T09:35:02;99335.94;;;4.04;79.71
9746;BME280;4912;50.836;12.958;2023-01-25T09:37:33;99346.09;;;4.07;80.70
9746;BME280;4912;50.836;12.958;2023-01-25T09:40:08;99334.41;;;4.18;80.80
9746;BME280;4912;50.836;12.958;2023-01-25T09:42:57;99330.50;;;4.33;80.13
9746;BME280;4912;50.836;12.958;2023-01-25T09:45:31;99335.22;;;4.36;79.55
9746;BME280;4912;50.836;12.958;2023-01-25T09:48:09;99330.53;;;4.47;79.76
9746;BME280;4912;50.836;12.958;2023-01-25T09:51:03;99332.88;;;4.34;79.14
9746;BME280;4912;50.836;12.958;2023-01-25T09:53:40;99335.22;;;4.39;79.33
9746;BME280;4912;50.836;12.958;2023-01-25T09:56:22;99333.66;;;4.38;79.67
9746;BME280;4912;50.836;12.958;2023-01-25T09:58:58;99344.25;;;4.50;79.51
9746;BME280;4912;50.836;12.958;2023-01-25T10:01:36;99333.28;;;4.61;79.60
9746;BME280;4912;50.836;12.958;2023-01-25T10:04:15;99331.34;;;4.58;78.79
9746;BME280;4912;50.836;12.958;2023-01-25T10:06:51;99329.00;;;4.64;78.79
9746;BME280;4912;50.836;12.958;2023-01-25T10:09:34;99321.16;;;4.73;78.68
9746;BME280;4912;50.836;12.958;2023-01-25T10:12:12;99325.84;;;4.76;77.89
9746;BME280;4912;50.836;12.958;2023-01-25T10:14:45;99316.44;;;4.80;78.11
9746;BME280;4912;50.836;12.958;2023-01-25T10:17:23;99318.00;;;4.85;77.67
9746;BME280;4912;50.836;12.958;2023-01-25T10:20:06;99312.53;;;4.85;77.46
9746;BME280;4912;50.836;12.958;2023-01-25T10:22:47;99305.50;;;4.70;77.09
9746;BME280;4912;50.836;12.958;2023-01-25T10:25:28;99307.84;;;4.82;77.73
9746;BME280;4912;50.836;12.958;2023-01-25T10:28:19;99301.97;;;4.87;77.36
9746;BME280;4912;50.836;12.958;2023-01-25T10:30:59;99308.63;;;4.86;76.80
9746;BME280;4912;50.836;12.958;2023-01-25T10:33:36;99303.91;;;4.90;77.95
9746;BME280;4912;50.836;12.958;2023-01-25T10:36:12;99292.94;;;4.90;78.19
9746;BME280;4912;50.836;12.958;2023-01-25T10:38:47;99287.84;;;4.92;78.32
9746;BME280;4912;50.836;12.958;2023-01-25T10:41:26;99290.19;;;4.90;77.75
9746;BME280;4912;50.836;12.958;2023-01-25T10:44:02;99283.53;;;4.91;77.98
9746;BME280;4912;50.836;12.958;2023-01-25T10:46:49;99278.84;;;4.88;77.55
9746;BME280;4912;50.836;12.958;2023-01-25T10:49:25;99276.47;;;4.90;77.19
9746;BME280;4912;50.836;12.958;2023-01-25T10:52:12;99266.66;;;4.96;77.49
9746;BME280;4912;50.836;12.958;2023-01-25T10:54:47;99268.63;;;4.99;77.62
9746;BME280;4912;50.836;12.958;2023-01-25T10:57:32;99258.03;;;5.01;78.02
9746;BME280;4912;50.836;12.958;2023-01-25T11:00:06;99265.50;;;5.04;77.98
9746;BME280;4912;50.836;12.958;2023-01-25T11:02:43;99249.81;;;5.05;78.12
9746;BME280;4912;50.836;12.958;2023-01-25T11:05:26;99247.47;;;5.03;78.05
9746;BME280;4912;50.836;12.958;2023-01-25T11:08:16;99256.06;;;5.02;78.15
9746;BME280;4912;50.836;12.958;2023-01-25T11:10:55;99246.69;;;5.03;78.46
9746;BME280;4912;50.836;12.958;2023-01-25T11:13:26;99243.53;;;5.08;78.35
9746;BME280;4912;50.836;12.958;2023-01-25T11:16:15;99240.81;;;5.04;78.36
9746;BME280;4912;50.836;12.958;2023-01-25T11:18:53;99232.97;;;4.99;81.24
9746;BME280;4912;50.836;12.958;2023-01-25T11:21:26;99240.03;;;5.04;83.63
9746;BME280;4912;50.836;12.958;2023-01-25T11:24:02;99232.59;;;4.97;81.60
9746;BME280;4912;50.836;12.958;2023-01-25T11:26:44;99231.47;;;4.77;81.57
9746;BME280;4912;50.836;12.958;2023-01-25T11:29:16;99221.28;;;4.74;81.89
9746;BME280;4912;50.836;12.958;2023-01-25T11:31:49;99221.69;;;4.62;81.72
9746;BME280;4912;50.836;12.958;2023-01-25T11:34:26;99214.63;;;4.57;81.60
9746;BME280;4912;50.836;12.958;2023-01-25T11:37:09;99206.44;;;4.53;82.04
9746;BME280;4912;50.836;12.958;2023-01-25T11:39:57;99211.91;;;4.53;82.44
9746;BME280;4912;50.836;12.958;2023-01-25T11:42:40;99209.16;;;4.57;82.75
9746;BME280;4912;50.836;12.958;2023-01-25T11:45:41;99196.59;;;4.60;82.80
9746;BME280;4912;50.836;12.958;2023-01-25T11:48:50;99193.88;;;4.63;82.52
9746;BME280;4912;50.836;12.958;2023-01-25T11:51:37;99180.97;;;4.64;82.80
9746;BME280;4912;50.836;12.958;2023-01-25T11:54:37;99177.44;;;4.63;82.50
9746;BME280;4912;50.836;12.958;2023-01-25T11:57:33;99162.94;;;4.56;82.84
9746;BME280;4912;50.836;12.958;2023-01-25T12:00:29;99161.75;;;4.64;83.12
9746;BME280;4912;50.836;12.958;2023-01-25T12:06:21;99141.75;;;4.74;83.09
9746;BME280;4912;50.836;12.958;2023-01-25T12:09:19;99138.22;;;4.80;83.24
9746;BME280;4912;50.836;12.958;2023-01-25T12:12:19;99137.03;;;4.81;82.97
9746;BME280;4912;50.836;12.958;2023-01-25T12:15:05;99132.72;;;4.84;82.48
9746;BME280;4912;50.836;12.958;2023-01-25T12:17:54;99126.81;;;4.89;81.92
9746;BME280;4912;50.836;12.958;2023-01-25T12:20:44;99123.69;;;4.90;82.07
9746;BME280;4912;50.836;12.958;2023-01-25T12:23:54;99114.69;;;4.93;82.10
9746;BME280;4912;50.836;12.958;2023-01-25T12:26:34;99114.25;;;4.95;82.20
9746;BME280;4912;50.836;12.958;2023-01-25T12:29:21;99106.44;;;4.90;81.98
9746;BME280;4912;50.836;12.958;2023-01-25T12:32:00;99104.50;;;4.87;81.54
9746;BME280;4912;50.836;12.958;2023-01-25T12:34:36;99095.16;;;4.74;80.65
9746;BME280;4912;50.836;12.958;2023-01-25T12:37:12;99097.13;;;4.70;80.80
9746;BME280;4912;50.836;12.958;2023-01-25T12:39:47;99091.25;;;4.68;80.90
9746;BME280;4912;50.836;12.958;2023-01-25T12:42:20;99083.84;;;4.61;81.43
9746;BME280;4912;50.836;12.958;2023-01-25T12:44:59;99085.78;;;4.64;81.70
9746;BME280;4912;50.836;12.958;2023-01-25T12:47:40;99075.97;;;4.70;81.74
9746;BME280;4912;50.836;12.958;2023-01-25T12:50:17;99073.63;;;4.76;81.79
9746;BME280;4912;50.836;12.958;2023-01-25T12:52:53;99072.03;;;4.75;81.73
9746;BME280;4912;50.836;12.958;2023-01-25T12:55:26;99062.22;;;4.77;82.03
9746;BME280;4912;50.836;12.958;2023-01-25T12:58:00;99061.44;;;4.80;81.60
9746;BME280;4912;50.836;12.958;2023-01-25T13:00:41;99059.47;;;4.77;81.67
9746;BME280;4912;50.836;12.958;2023-01-25T13:03:26;99055.19;;;4.73;82.01
9746;BME280;4912;50.836;12.958;2023-01-25T13:06:06;99055.59;;;4.75;82.29
9746;BME280;4912;50.836;12.958;2023-01-25T13:08:48;99049.72;;;4.73;82.07
9746;BME280;4912;50.836;12.958;2023-01-25T13:11:26;99046.19;;;4.72;83.65
9746;BME280;4912;50.836;12.958;2023-01-25T13:14:18;99046.59;;;4.74;84.57
9746;BME280;4912;50.836;12.958;2023-01-25T13:16:55;99034.44;;;4.75;83.82
9746;BME280;4912;50.836;12.958;2023-01-25T13:19:42;99037.25;;;4.65;82.91
9746;BME280;4912;50.836;12.958;2023-01-25T13:22:13;99039.56;;;4.66;82.56
9746;BME280;4912;50.836;12.958;2023-01-25T13:25:24;99027.41;;;4.67;82.58
9746;BME280;4912;50.836;12.958;2023-01-25T13:28:40;99021.19;;;4.60;82.76
9746;BME280;4912;50.836;12.958;2023-01-25T13:37:32;99007.56;;;4.42;83.37
9746;BME280;4912;50.836;12.958;2023-01-25T13:40:05;99011.50;;;4.37;83.66
9746;BME280;4912;50.836;12.958;2023-01-25T13:42:59;99002.50;;;4.40;83.72
9746;BME280;4912;50.836;12.958;2023-01-25T13:45:33;98993.47;;;4.47;83.72
9746;BME280;4912;50.836;12.958;2023-01-25T13:48:11;98994.63;;;4.42;83.63
9746;BME280;4912;50.836;12.958;2023-01-25T13:50:49;98989.16;;;4.46;84.09
9746;BME280;4912;50.836;12.958;2023-01-25T13:53:22;98981.72;;;4.43;84.00
9746;BME280;4912;50.836;12.958;2023-01-25T13:55:56;98984.88;;;4.41;83.84
9746;BME280;4912;50.836;12.958;2023-01-25T13:58:30;98985.69;;;4.35;83.97
9746;BME280;4912;50.836;12.958;2023-01-25T14:01:04;98982.13;;;4.41;84.43
9746;BME280;4912;50.836;12.958;2023-01-25T14:03:40;98980.94;;;4.42;84.42
9746;BME280;4912;50.836;12.958;2023-01-25T14:06:17;98969.59;;;4.44;84.49
9746;BME280;4912;50.836;12.958;2023-01-25T14:08:53;98970.72;;;4.53;84.64
9746;BME280;4912;50.836;12.958;2023-01-25T14:11:27;98970.34;;;4.48;83.83
9746;BME280;4912;50.836;12.958;2023-01-25T14:14:02;98969.59;;;4.44;83.86
9746;BME280;4912;50.836;12.958;2023-01-25T14:16:45;98961.34;;;4.44;84.49
9746;BME280;4912;50.836;12.958;2023-01-25T14:19:23;98958.59;;;4.51;84.80
9746;BME280;4912;50.836;12.958;2023-01-25T14:22:23;98961.31;;;4.54;84.49
9746;BME280;4912;50.836;12.958;2023-01-25T14:25:06;98944.47;;;4.56;84.47
9746;BME280;4912;50.836;12.958;2023-01-25T14:27:44;98944.47;;;4.56;84.62
9746;BME280;4912;50.836;12.958;2023-01-25T14:30:21;98940.94;;;4.56;84.54
9746;BME280;4912;50.836;12.958;2023-01-25T14:32:54;98932.72;;;4.56;84.13
9746;BME280;4912;50.836;12.958;2023-01-25T14:35:33;98929.63;;;4.53;83.71